createdAt,value
2023-06-06T00:00:29.725Z,0.00
2023-06-06T00:01:29.704Z,0.00
2023-06-06T00:02:29.710Z,0.00
2023-06-06T00:03:29.784Z,0.00
2023-06-06T00:04:29.689Z,0.00
2023-06-06T00:05:29.609Z,0.00
2023-06-06T00:06:29.588Z,0.00
2023-06-06T00:07:29.558Z,0.00
2023-06-06T00:08:29.550Z,0.00
2023-06-06T00:09:29.543Z,0.00
2023-06-06T00:10:29.494Z,0.00
2023-06-06T00:11:29.465Z,0.00
2023-06-06T00:12:29.437Z,0.00
2023-06-06T00:13:29.416Z,0.00
2023-06-06T00:14:29.392Z,0.00
2023-06-06T00:15:29.368Z,0.00
2023-06-06T00:16:29.364Z,0.00
2023-06-06T00:17:29.356Z,0.00
2023-06-06T00:18:29.292Z,0.00
2023-06-06T00:19:29.286Z,0.00
2023-06-06T00:20:29.241Z,0.00
2023-06-06T00:21:29.228Z,0.00
2023-06-06T00:22:29.199Z,0.00
2023-06-06T00:23:29.193Z,0.00
2023-06-06T00:24:29.151Z,0.00
2023-06-06T00:25:29.144Z,0.00
2023-06-06T00:26:29.097Z,0.00
2023-06-06T00:27:29.076Z,0.00
2023-06-06T00:28:29.052Z,0.00
2023-06-06T00:29:29.041Z,0.00
2023-06-06T00:30:29.004Z,0.00
2023-06-06T00:31:29.027Z,0.00
2023-06-06T00:32:29.056Z,0.00
2023-06-06T00:33:28.930Z,0.00
2023-06-06T00:34:28.905Z,0.00
2023-06-06T00:35:28.883Z,0.00
2023-06-06T00:36:28.878Z,0.00
2023-06-06T00:37:28.836Z,0.00
2023-06-06T00:38:28.810Z,0.00
2023-06-06T00:39:28.791Z,0.00
2023-06-06T00:40:28.765Z,0.00
2023-06-06T00:41:28.759Z,0.00
2023-06-06T00:42:28.723Z,0.00
2023-06-06T00:43:28.704Z,0.00
2023-06-06T00:44:28.664Z,0.00
2023-06-06T00:45:28.652Z,0.00
2023-06-06T00:46:28.683Z,0.00
2023-06-06T00:47:28.645Z,0.00
2023-06-06T00:48:28.567Z,0.00
2023-06-06T00:49:28.576Z,0.00
2023-06-06T00:50:28.522Z,0.00
2023-06-06T00:51:28.509Z,0.00
2023-06-06T00:52:28.494Z,0.00
2023-06-06T00:53:28.458Z,0.00
2023-06-06T00:54:28.427Z,0.00
2023-06-06T00:55:28.413Z,0.00
2023-06-06T00:56:28.378Z,0.00
2023-06-06T00:57:28.382Z,0.00
2023-06-06T00:58:28.350Z,0.00
2023-06-06T00:59:28.315Z,0.00
2023-06-06T01:00:28.280Z,0.00
2023-06-06T01:01:28.286Z,0.00
2023-06-06T01:02:28.265Z,0.00
2023-06-06T01:03:28.252Z,0.00
2023-06-06T01:04:28.191Z,0.00
2023-06-06T01:05:28.158Z,0.00
2023-06-06T01:06:28.135Z,0.00
2023-06-06T01:07:28.125Z,0.00
2023-06-06T01:08:28.084Z,0.00
2023-06-06T01:09:28.103Z,0.00
2023-06-06T01:10:28.037Z,0.00
2023-06-06T01:11:28.044Z,0.00
2023-06-06T01:12:27.986Z,0.00
2023-06-06T01:13:27.988Z,0.00
2023-06-06T01:14:27.935Z,0.00
2023-06-06T01:15:27.916Z,0.00
2023-06-06T01:16:28.026Z,0.00
2023-06-06T01:17:27.909Z,0.00
2023-06-06T01:18:27.847Z,0.00
2023-06-06T01:19:27.821Z,0.00
2023-06-06T01:20:27.793Z,0.00
2023-06-06T01:21:27.770Z,0.00
2023-06-06T01:22:27.744Z,0.00
2023-06-06T01:23:27.793Z,0.00
2023-06-06T01:24:27.705Z,0.00
2023-06-06T01:25:27.678Z,0.00
2023-06-06T01:26:27.646Z,0.00
2023-06-06T01:27:27.623Z,0.00
2023-06-06T01:28:27.600Z,0.00
2023-06-06T01:29:27.593Z,0.00
2023-06-06T01:30:27.555Z,0.00
2023-06-06T01:31:27.532Z,0.00
2023-06-06T01:32:27.514Z,0.00
2023-06-06T01:33:27.481Z,0.00
2023-06-06T01:34:27.450Z,0.00
2023-06-06T01:35:27.436Z,0.00
2023-06-06T01:36:27.414Z,0.00
2023-06-06T01:37:27.378Z,0.00
2023-06-06T01:38:27.358Z,0.00
2023-06-06T01:39:27.327Z,0.00
2023-06-06T01:40:27.304Z,0.00
2023-06-06T01:41:27.283Z,0.00
2023-06-06T01:42:27.259Z,0.00
2023-06-06T01:43:27.232Z,0.00
2023-06-06T01:44:27.231Z,0.00
2023-06-06T01:45:27.207Z,0.00
2023-06-06T01:46:27.191Z,0.00
2023-06-06T01:47:27.174Z,0.00
2023-06-06T01:48:27.109Z,0.00
2023-06-06T01:49:27.085Z,0.00
2023-06-06T01:50:27.069Z,0.00
2023-06-06T01:51:27.037Z,0.00
2023-06-06T01:52:27.020Z,0.00
2023-06-06T01:53:26.986Z,0.00
2023-06-06T01:54:26.961Z,0.00
2023-06-06T01:55:26.935Z,0.00
2023-06-06T01:56:26.911Z,0.00
2023-06-06T01:57:26.886Z,0.00
2023-06-06T01:58:26.873Z,0.00
2023-06-06T01:59:26.865Z,0.00
2023-06-06T02:00:26.812Z,0.00
2023-06-06T02:01:26.818Z,0.00
2023-06-06T02:02:26.815Z,0.00
2023-06-06T02:03:26.804Z,0.00
2023-06-06T02:04:26.714Z,0.00
2023-06-06T02:05:26.689Z,0.00
2023-06-06T02:06:26.668Z,0.00
2023-06-06T02:07:26.640Z,0.00
2023-06-06T02:08:26.632Z,0.00
2023-06-06T02:09:26.591Z,0.00
2023-06-06T02:10:26.570Z,0.00
2023-06-06T02:11:26.544Z,0.00
2023-06-06T02:12:26.521Z,0.00
2023-06-06T02:13:26.492Z,0.00
2023-06-06T02:14:26.470Z,0.00
2023-06-06T02:15:26.445Z,0.00
2023-06-06T02:16:26.436Z,0.00
2023-06-06T02:17:26.428Z,0.00
2023-06-06T02:18:26.376Z,0.00
2023-06-06T02:19:26.356Z,0.00
2023-06-06T02:20:26.325Z,0.00
2023-06-06T02:21:26.304Z,0.00
2023-06-06T02:22:26.277Z,0.00
2023-06-06T02:23:26.307Z,0.00
2023-06-06T02:24:26.221Z,0.00
2023-06-06T02:25:26.204Z,0.00
2023-06-06T02:26:26.175Z,0.00
2023-06-06T02:27:26.152Z,0.00
2023-06-06T02:28:26.135Z,0.00
2023-06-06T02:29:26.101Z,0.00
2023-06-06T02:30:26.135Z,0.00
2023-06-06T02:31:26.080Z,0.00
2023-06-06T02:32:26.028Z,0.00
2023-06-06T02:33:26.030Z,0.00
2023-06-06T02:34:25.982Z,0.00
2023-06-06T02:35:25.969Z,0.00
2023-06-06T02:36:25.930Z,0.00
2023-06-06T02:37:25.911Z,0.00
2023-06-06T02:38:25.889Z,0.00
2023-06-06T02:39:25.855Z,0.00
2023-06-06T02:40:25.829Z,0.00
2023-06-06T02:41:25.805Z,0.00
2023-06-06T02:42:25.780Z,0.00
2023-06-06T02:43:25.768Z,0.00
2023-06-06T02:44:25.731Z,0.00
2023-06-06T02:45:25.705Z,0.00
2023-06-06T02:46:25.743Z,0.00
2023-06-06T02:47:25.686Z,0.00
2023-06-06T02:48:25.647Z,0.00
2023-06-06T02:49:25.629Z,0.00
2023-06-06T02:50:25.618Z,0.00
2023-06-06T02:51:25.583Z,0.00
2023-06-06T02:52:25.533Z,0.00
2023-06-06T02:53:25.508Z,0.00
2023-06-06T02:54:25.511Z,0.00
2023-06-06T02:55:25.471Z,0.00
2023-06-06T02:56:25.442Z,0.00
2023-06-06T02:57:25.407Z,0.00
2023-06-06T02:58:25.386Z,0.00
2023-06-06T02:59:25.359Z,0.00
2023-06-06T03:00:25.358Z,0.00
2023-06-06T03:01:25.315Z,0.00
2023-06-06T03:02:25.298Z,0.00
2023-06-06T03:03:25.288Z,0.00
2023-06-06T03:04:25.266Z,0.00
2023-06-06T03:05:25.232Z,0.00
2023-06-06T03:06:25.192Z,0.00
2023-06-06T03:07:25.167Z,0.00
2023-06-06T03:08:25.148Z,0.00
2023-06-06T03:09:25.113Z,0.00
2023-06-06T03:10:25.098Z,0.00
2023-06-06T03:11:25.062Z,0.00
2023-06-06T03:12:25.039Z,0.00
2023-06-06T03:13:25.015Z,0.00
2023-06-06T03:14:25.023Z,0.00
2023-06-06T03:15:24.965Z,0.00
2023-06-06T03:16:24.954Z,0.00
2023-06-06T03:17:24.998Z,0.00
2023-06-06T03:18:24.892Z,0.00
2023-06-06T03:19:24.866Z,0.00
2023-06-06T03:20:24.840Z,0.00
2023-06-06T03:21:24.847Z,0.00
2023-06-06T03:22:24.795Z,0.00
2023-06-06T03:23:24.802Z,0.00
2023-06-06T03:24:24.744Z,0.00
2023-06-06T03:25:24.720Z,0.00
2023-06-06T03:26:24.694Z,0.00
2023-06-06T03:27:24.670Z,0.00
2023-06-06T03:28:24.655Z,0.00
2023-06-06T03:29:24.636Z,0.00
2023-06-06T03:30:24.611Z,0.00
2023-06-06T03:31:24.671Z,0.00
2023-06-06T03:32:24.727Z,0.00
2023-06-06T03:33:24.526Z,0.00
2023-06-06T03:34:24.495Z,5.63
2023-06-06T03:35:24.471Z,5.63
2023-06-06T03:36:24.445Z,5.63
2023-06-06T03:37:24.442Z,5.63
2023-06-06T03:38:24.397Z,5.63
2023-06-06T03:39:24.409Z,5.63
2023-06-06T03:40:24.347Z,5.63
2023-06-06T03:41:24.319Z,5.63
2023-06-06T03:42:24.299Z,5.63
2023-06-06T03:43:24.271Z,5.63
2023-06-06T03:44:24.251Z,5.63
2023-06-06T03:45:24.219Z,11.25
2023-06-06T03:46:24.318Z,11.25
2023-06-06T03:47:24.183Z,11.25
2023-06-06T03:48:24.150Z,11.25
2023-06-06T03:49:24.122Z,11.25
2023-06-06T03:50:24.097Z,11.25
2023-06-06T03:51:24.077Z,11.25
2023-06-06T03:52:24.165Z,11.25
2023-06-06T03:53:24.043Z,11.25
2023-06-06T03:54:24.000Z,16.88
2023-06-06T03:55:23.977Z,16.88
2023-06-06T03:56:23.949Z,16.88
2023-06-06T03:57:23.917Z,16.88
2023-06-06T03:58:23.895Z,16.88
2023-06-06T03:59:23.868Z,16.88
2023-06-06T04:00:23.844Z,16.88
2023-06-06T04:01:23.836Z,16.88
2023-06-06T04:02:23.978Z,16.88
2023-06-06T04:03:24.012Z,22.50
2023-06-06T04:04:23.776Z,22.50
2023-06-06T04:05:23.715Z,22.50
2023-06-06T04:06:23.698Z,22.50
2023-06-06T04:07:23.666Z,22.50
2023-06-06T04:08:23.661Z,22.50
2023-06-06T04:09:23.635Z,22.50
2023-06-06T04:10:23.598Z,22.50
2023-06-06T04:11:23.569Z,28.13
2023-06-06T04:12:23.555Z,28.13
2023-06-06T04:13:23.511Z,28.13
2023-06-06T04:14:24.731Z,28.13
2023-06-06T04:15:23.461Z,28.13
2023-06-06T04:16:23.463Z,28.13
2023-06-06T04:17:23.420Z,28.13
2023-06-06T04:18:23.401Z,28.13
2023-06-06T04:19:23.364Z,33.75
2023-06-06T04:20:23.337Z,33.75
2023-06-06T04:21:23.316Z,33.75
2023-06-06T04:22:23.292Z,33.75
2023-06-06T04:23:23.305Z,33.75
2023-06-06T04:24:23.243Z,33.75
2023-06-06T04:25:23.245Z,33.75
2023-06-06T04:26:23.190Z,33.75
2023-06-06T04:27:23.163Z,33.75
2023-06-06T04:28:23.147Z,39.38
2023-06-06T04:29:23.114Z,39.38
2023-06-06T04:30:23.090Z,39.38
2023-06-06T04:31:23.096Z,39.38
2023-06-06T04:32:23.038Z,39.38
2023-06-06T04:33:23.027Z,39.38
2023-06-06T04:34:22.990Z,39.38
2023-06-06T04:35:22.962Z,39.38
2023-06-06T04:36:22.941Z,45.00
2023-06-06T04:37:22.916Z,45.00
2023-06-06T04:38:22.891Z,45.00
2023-06-06T04:39:22.866Z,45.00
2023-06-06T04:40:22.861Z,45.00
2023-06-06T04:41:51.213Z,45.00
2023-06-06T04:42:22.789Z,45.00
2023-06-06T04:43:22.770Z,45.00
2023-06-06T04:44:22.740Z,50.63
2023-06-06T04:45:22.714Z,50.63
2023-06-06T04:46:22.773Z,50.63
2023-06-06T04:47:22.693Z,50.63
2023-06-06T04:48:22.640Z,50.63
2023-06-06T04:49:22.615Z,50.63
2023-06-06T04:50:22.592Z,50.63
2023-06-06T04:51:22.562Z,50.63
2023-06-06T04:52:22.540Z,56.25
2023-06-06T04:53:22.512Z,56.25
2023-06-06T04:54:22.489Z,56.25
2023-06-06T04:55:22.466Z,56.25
2023-06-06T04:56:22.440Z,56.25
2023-06-06T04:57:22.436Z,56.25
2023-06-06T04:58:22.392Z,56.25
2023-06-06T04:59:22.366Z,56.25
2023-06-06T05:00:22.338Z,56.25
2023-06-06T05:01:22.422Z,61.88
2023-06-06T05:02:22.359Z,61.88
2023-06-06T05:03:22.378Z,61.88
2023-06-06T05:04:22.242Z,61.88
2023-06-06T05:05:22.218Z,61.88
2023-06-06T05:06:22.192Z,61.88
2023-06-06T05:07:22.166Z,61.88
2023-06-06T05:08:22.141Z,61.88
2023-06-06T05:09:22.125Z,61.88
2023-06-06T05:10:22.096Z,61.88
2023-06-06T05:11:22.067Z,61.88
2023-06-06T05:12:22.051Z,67.50
2023-06-06T05:13:22.037Z,67.50
2023-06-06T05:14:21.995Z,67.50
2023-06-06T05:15:21.970Z,67.50
2023-06-06T05:16:22.002Z,67.50
2023-06-06T05:17:22.340Z,67.50
2023-06-06T05:18:21.899Z,67.50
2023-06-06T05:19:21.878Z,67.50
2023-06-06T05:20:21.850Z,73.13
2023-06-06T05:21:21.822Z,73.13
2023-06-06T05:22:21.799Z,67.50
2023-06-06T05:23:21.821Z,73.13
2023-06-06T05:24:21.750Z,73.13
2023-06-06T05:25:21.721Z,73.13
2023-06-06T05:26:21.698Z,73.13
2023-06-06T05:27:21.673Z,73.13
2023-06-06T05:28:21.645Z,73.13
2023-06-06T05:29:21.648Z,73.13
2023-06-06T05:30:21.611Z,78.75
2023-06-06T05:31:21.607Z,78.75
2023-06-06T05:32:21.594Z,78.75
2023-06-06T05:33:21.529Z,78.75
2023-06-06T05:34:21.505Z,84.38
2023-06-06T05:35:21.474Z,78.75
2023-06-06T05:36:21.449Z,78.75
2023-06-06T05:37:21.419Z,78.75
2023-06-06T05:38:21.399Z,78.75
2023-06-06T05:39:21.379Z,78.75
2023-06-06T05:40:21.352Z,78.75
2023-06-06T05:41:21.323Z,78.75
2023-06-06T05:42:21.298Z,78.75
2023-06-06T05:43:21.273Z,78.75
2023-06-06T05:44:21.250Z,78.75
2023-06-06T05:45:21.271Z,78.75
2023-06-06T05:46:21.268Z,78.75
2023-06-06T05:47:21.222Z,78.75
2023-06-06T05:48:21.158Z,84.38
2023-06-06T05:49:21.132Z,84.38
2023-06-06T05:50:21.103Z,84.38
2023-06-06T05:51:21.079Z,84.38
2023-06-06T05:52:21.051Z,84.38
2023-06-06T05:53:21.028Z,84.38
2023-06-06T05:54:21.010Z,84.38
2023-06-06T05:55:20.986Z,84.38
2023-06-06T05:56:20.953Z,84.38
2023-06-06T05:57:20.939Z,84.38
2023-06-06T05:58:20.919Z,90.00
2023-06-06T05:59:20.883Z,90.00
2023-06-06T06:00:20.866Z,90.00
2023-06-06T06:01:20.989Z,90.00
2023-06-06T06:02:20.887Z,90.00
2023-06-06T06:03:20.824Z,90.00
2023-06-06T06:04:20.828Z,90.00
2023-06-06T06:05:20.741Z,90.00
2023-06-06T06:06:20.724Z,90.00
2023-06-06T06:07:20.690Z,90.00
2023-06-06T06:08:20.661Z,95.63
2023-06-06T06:09:23.817Z,90.00
2023-06-06T06:10:20.615Z,95.63
2023-06-06T06:11:20.589Z,95.63
2023-06-06T06:12:20.593Z,95.63
2023-06-06T06:13:20.545Z,95.63
2023-06-06T06:14:20.517Z,95.63
2023-06-06T06:15:20.493Z,95.63
2023-06-06T06:16:20.512Z,95.63
2023-06-06T06:17:20.467Z,95.63
2023-06-06T06:18:20.421Z,95.63
2023-06-06T06:19:20.399Z,95.63
2023-06-06T06:20:20.370Z,95.63
2023-06-06T06:21:20.349Z,101.25
2023-06-06T06:22:20.324Z,101.25
2023-06-06T06:23:20.304Z,101.25
2023-06-06T06:24:20.273Z,101.25
2023-06-06T06:25:20.259Z,101.25
2023-06-06T06:26:20.225Z,101.25
2023-06-06T06:27:21.655Z,101.25
2023-06-06T06:28:20.175Z,101.25
2023-06-06T06:29:20.153Z,101.25
2023-06-06T06:30:20.223Z,101.25
2023-06-06T06:31:20.186Z,101.25
2023-06-06T06:32:20.084Z,101.25
2023-06-06T06:33:20.194Z,101.25
2023-06-06T06:34:20.030Z,106.88
2023-06-06T06:35:20.010Z,101.25
2023-06-06T06:36:19.984Z,106.88
2023-06-06T06:37:19.966Z,101.25
2023-06-06T06:38:19.938Z,112.50
2023-06-06T06:39:20.039Z,106.88
2023-06-06T06:40:19.887Z,106.88
2023-06-06T06:41:19.864Z,106.88
2023-06-06T06:42:19.837Z,106.88
2023-06-06T06:43:19.815Z,106.88
2023-06-06T06:44:19.790Z,112.50
2023-06-06T06:45:19.768Z,106.88
2023-06-06T06:46:19.786Z,106.88
2023-06-06T06:47:19.787Z,106.88
2023-06-06T06:48:19.703Z,112.50
2023-06-06T06:49:19.781Z,106.88
2023-06-06T06:50:19.658Z,106.88
2023-06-06T06:51:19.624Z,112.50
2023-06-06T06:52:19.596Z,112.50
2023-06-06T06:53:19.574Z,118.13
2023-06-06T06:54:19.548Z,112.50
2023-06-06T06:55:19.527Z,112.50
2023-06-06T06:56:19.501Z,118.13
2023-06-06T06:57:19.477Z,112.50
2023-06-06T06:58:19.460Z,112.50
2023-06-06T06:59:19.430Z,112.50
2023-06-06T07:00:19.405Z,112.50
2023-06-06T07:01:19.429Z,112.50
2023-06-06T07:02:19.355Z,118.13
2023-06-06T07:03:19.336Z,112.50
2023-06-06T07:04:19.310Z,112.50
2023-06-06T07:05:19.338Z,112.50
2023-06-06T07:06:19.268Z,112.50
2023-06-06T07:07:19.243Z,118.13
2023-06-06T07:08:19.217Z,118.13
2023-06-06T07:09:19.192Z,118.13
2023-06-06T07:10:19.192Z,112.50
2023-06-06T07:11:19.153Z,118.13
2023-06-06T07:12:19.114Z,118.13
2023-06-06T07:13:19.094Z,118.13
2023-06-06T07:14:19.077Z,118.13
2023-06-06T07:15:19.048Z,118.13
2023-06-06T07:16:19.051Z,118.13
2023-06-06T07:17:19.001Z,118.13
2023-06-06T07:18:18.976Z,118.13
2023-06-06T07:19:18.959Z,118.13
2023-06-06T07:20:18.928Z,118.13
2023-06-06T07:21:19.007Z,118.13
2023-06-06T07:22:18.882Z,118.13
2023-06-06T07:23:18.861Z,118.13
2023-06-06T07:24:18.837Z,118.13
2023-06-06T07:25:18.837Z,118.13
2023-06-06T07:26:18.784Z,118.13
2023-06-06T07:27:18.765Z,118.13
2023-06-06T07:28:18.738Z,118.13
2023-06-06T07:29:18.733Z,123.75
2023-06-06T07:30:18.696Z,118.13
2023-06-06T07:31:18.704Z,118.13
2023-06-06T07:32:18.644Z,118.13
2023-06-06T07:33:18.625Z,118.13
2023-06-06T07:34:18.602Z,118.13
2023-06-06T07:35:18.597Z,118.13
2023-06-06T07:36:18.552Z,118.13
2023-06-06T07:37:18.651Z,118.13
2023-06-06T07:38:18.510Z,118.13
2023-06-06T07:39:18.484Z,118.13
2023-06-06T07:40:18.708Z,118.13
2023-06-06T07:41:18.435Z,118.13
2023-06-06T07:42:21.176Z,123.75
2023-06-06T07:43:18.390Z,129.38
2023-06-06T07:44:18.363Z,118.13
2023-06-06T07:45:18.349Z,118.13
2023-06-06T07:46:18.339Z,118.13
2023-06-06T07:47:18.308Z,118.13
2023-06-06T07:48:18.269Z,123.75
2023-06-06T07:49:18.262Z,118.13
2023-06-06T07:50:18.224Z,118.13
2023-06-06T07:51:18.202Z,118.13
2023-06-06T07:52:18.177Z,118.13
2023-06-06T07:53:18.286Z,123.75
2023-06-06T07:54:18.143Z,129.38
2023-06-06T07:55:18.177Z,123.75
2023-06-06T07:56:18.083Z,123.75
2023-06-06T07:57:18.418Z,123.75
2023-06-06T07:58:18.037Z,118.13
2023-06-06T07:59:18.015Z,123.75
2023-06-06T08:00:17.999Z,123.75
2023-06-06T08:01:17.970Z,123.75
2023-06-06T08:02:18.019Z,123.75
2023-06-06T08:03:17.944Z,123.75
2023-06-06T08:04:17.904Z,123.75
2023-06-06T08:05:17.962Z,123.75
2023-06-06T08:06:17.900Z,123.75
2023-06-06T08:07:17.838Z,123.75
2023-06-06T08:08:17.809Z,123.75
2023-06-06T08:09:17.966Z,129.38
2023-06-06T08:10:17.790Z,129.38
2023-06-06T08:11:17.739Z,129.38
2023-06-06T08:12:17.723Z,123.75
2023-06-06T08:13:17.691Z,123.75
2023-06-06T08:14:17.669Z,129.38
2023-06-06T08:15:17.645Z,123.75
2023-06-06T08:16:17.628Z,123.75
2023-06-06T08:17:17.647Z,123.75
2023-06-06T08:18:17.638Z,129.38
2023-06-06T08:19:17.555Z,135.00
2023-06-06T08:20:17.529Z,129.38
2023-06-06T08:21:17.511Z,123.75
2023-06-06T08:22:17.484Z,123.75
2023-06-06T08:23:17.460Z,129.38
2023-06-06T08:24:17.444Z,123.75
2023-06-06T08:25:17.552Z,129.38
2023-06-06T08:26:17.391Z,129.38
2023-06-06T08:27:17.371Z,129.38
2023-06-06T08:28:17.382Z,129.38
2023-06-06T08:29:17.324Z,129.38
2023-06-06T08:30:17.302Z,129.38
2023-06-06T08:31:17.378Z,129.38
2023-06-06T08:32:17.256Z,129.38
2023-06-06T08:33:17.232Z,129.38
2023-06-06T08:34:17.208Z,129.38
2023-06-06T08:35:17.191Z,135.00
2023-06-06T08:36:17.189Z,129.38
2023-06-06T08:37:17.141Z,129.38
2023-06-06T08:38:17.120Z,129.38
2023-06-06T08:39:17.097Z,129.38
2023-06-06T08:40:17.102Z,129.38
2023-06-06T08:41:18.066Z,129.38
2023-06-06T08:42:17.026Z,129.38
2023-06-06T08:43:17.006Z,129.38
2023-06-06T08:44:16.991Z,129.38
2023-06-06T08:45:16.972Z,135.00
2023-06-06T08:46:16.980Z,129.38
2023-06-06T08:47:16.918Z,135.00
2023-06-06T08:48:16.892Z,129.38
2023-06-06T08:49:16.874Z,140.63
2023-06-06T08:50:16.848Z,129.38
2023-06-06T08:51:16.827Z,135.00
2023-06-06T08:52:16.825Z,135.00
2023-06-06T08:53:16.789Z,135.00
2023-06-06T08:54:16.761Z,135.00
2023-06-06T08:55:16.742Z,140.63
2023-06-06T08:56:16.715Z,129.38
2023-06-06T08:57:16.824Z,129.38
2023-06-06T08:58:16.671Z,129.38
2023-06-06T08:59:16.657Z,135.00
2023-06-06T09:00:16.625Z,129.38
2023-06-06T09:01:16.604Z,129.38
2023-06-06T09:02:16.957Z,135.00
2023-06-06T09:03:16.756Z,135.00
2023-06-06T09:04:16.672Z,129.38
2023-06-06T09:05:16.543Z,135.00
2023-06-06T09:06:16.495Z,135.00
2023-06-06T09:07:16.472Z,140.63
2023-06-06T09:08:16.456Z,135.00
2023-06-06T09:09:16.429Z,135.00
2023-06-06T09:10:16.404Z,135.00
2023-06-06T09:11:16.383Z,135.00
2023-06-06T09:12:16.359Z,135.00
2023-06-06T09:13:16.448Z,140.63
2023-06-06T09:14:16.317Z,135.00
2023-06-06T09:15:16.295Z,135.00
2023-06-06T09:16:16.294Z,135.00
2023-06-06T09:17:16.252Z,140.63
2023-06-06T09:18:16.226Z,140.63
2023-06-06T09:19:16.212Z,140.63
2023-06-06T09:20:16.240Z,135.00
2023-06-06T09:21:16.163Z,140.63
2023-06-06T09:22:16.137Z,135.00
2023-06-06T09:23:16.160Z,135.00
2023-06-06T09:24:16.167Z,135.00
2023-06-06T09:25:16.119Z,135.00
2023-06-06T09:26:16.053Z,135.00
2023-06-06T09:27:17.144Z,135.00
2023-06-06T09:28:16.011Z,135.00
2023-06-06T09:29:16.098Z,140.63
2023-06-06T09:30:15.970Z,135.00
2023-06-06T09:31:16.017Z,140.63
2023-06-06T09:32:15.982Z,135.00
2023-06-06T09:33:15.979Z,135.00
2023-06-06T09:34:15.935Z,140.63
2023-06-06T09:35:15.853Z,140.63
2023-06-06T09:36:17.106Z,140.63
2023-06-06T09:37:15.859Z,140.63
2023-06-06T09:38:15.798Z,140.63
2023-06-06T09:39:15.868Z,135.00
2023-06-06T09:40:15.763Z,135.00
2023-06-06T09:41:15.735Z,140.63
2023-06-06T09:42:15.697Z,140.63
2023-06-06T09:43:15.702Z,140.63
2023-06-06T09:44:15.676Z,146.25
2023-06-06T09:45:16.034Z,146.25
2023-06-06T09:46:15.893Z,140.63
2023-06-06T09:47:15.601Z,140.63
2023-06-06T09:48:15.616Z,140.63
2023-06-06T09:49:15.549Z,140.63
2023-06-06T09:50:15.551Z,140.63
2023-06-06T09:51:15.818Z,140.63
2023-06-06T09:52:15.483Z,140.63
2023-06-06T09:53:15.475Z,135.00
2023-06-06T09:54:15.449Z,140.63
2023-06-06T09:55:15.417Z,140.63
2023-06-06T09:56:15.431Z,146.25
2023-06-06T09:57:15.801Z,140.63
2023-06-06T09:58:15.351Z,140.63
2023-06-06T09:59:15.330Z,140.63
2023-06-06T10:00:15.321Z,146.25
2023-06-06T10:01:16.231Z,151.88
2023-06-06T10:02:15.426Z,146.25
2023-06-06T10:03:15.353Z,146.25
2023-06-06T10:04:15.417Z,146.25
2023-06-06T10:05:15.392Z,146.25
2023-06-06T10:06:15.192Z,146.25
2023-06-06T10:07:15.159Z,146.25
2023-06-06T10:08:15.138Z,146.25
2023-06-06T10:09:15.157Z,146.25
2023-06-06T10:10:15.206Z,146.25
2023-06-06T10:11:15.366Z,146.25
2023-06-06T10:12:15.054Z,146.25
2023-06-06T10:13:15.035Z,146.25
2023-06-06T10:14:15.021Z,168.75
2023-06-06T10:15:15.010Z,146.25
2023-06-06T10:16:15.011Z,146.25
2023-06-06T10:17:14.990Z,151.88
2023-06-06T10:18:14.945Z,151.88
2023-06-06T10:19:14.928Z,151.88
2023-06-06T10:20:14.884Z,146.25
2023-06-06T10:21:14.889Z,151.88
2023-06-06T10:22:14.858Z,151.88
2023-06-06T10:23:14.899Z,146.25
2023-06-06T10:24:14.838Z,151.88
2023-06-06T10:25:14.847Z,151.88
2023-06-06T10:26:14.793Z,146.25
2023-06-06T10:27:14.760Z,151.88
2023-06-06T10:28:14.722Z,151.88
2023-06-06T10:29:14.732Z,151.88
2023-06-06T10:30:14.812Z,151.88
2023-06-06T10:31:14.799Z,157.50
2023-06-06T10:32:14.640Z,157.50
2023-06-06T10:33:14.754Z,163.13
2023-06-06T10:34:14.636Z,163.13
2023-06-06T10:35:14.574Z,180.00
2023-06-06T10:36:14.557Z,157.50
2023-06-06T10:37:14.535Z,157.50
2023-06-06T10:38:14.509Z,157.50
2023-06-06T10:39:14.490Z,157.50
2023-06-06T10:40:14.485Z,163.13
2023-06-06T10:41:14.452Z,180.00
2023-06-06T10:42:14.427Z,157.50
2023-06-06T10:43:33.305Z,157.50
2023-06-06T10:44:14.399Z,163.13
2023-06-06T10:45:14.382Z,163.13
2023-06-06T10:46:14.379Z,163.13
2023-06-06T10:47:14.509Z,157.50
2023-06-06T10:48:14.396Z,168.75
2023-06-06T10:49:14.456Z,157.50
2023-06-06T10:50:14.366Z,163.13
2023-06-06T10:51:14.239Z,174.38
2023-06-06T10:52:14.218Z,163.13
2023-06-06T10:53:14.198Z,163.13
2023-06-06T10:54:14.222Z,157.50
2023-06-06T10:55:14.194Z,174.38
2023-06-06T10:56:14.148Z,163.13
2023-06-06T10:57:15.258Z,157.50
2023-06-06T10:58:14.110Z,163.13
2023-06-06T10:59:14.094Z,157.50
2023-06-06T11:00:14.215Z,157.50
2023-06-06T11:01:14.123Z,174.38
2023-06-06T11:02:14.014Z,168.75
2023-06-06T11:03:16.786Z,163.13
2023-06-06T11:04:14.002Z,163.13
2023-06-06T11:05:14.011Z,163.13
2023-06-06T11:06:14.631Z,163.13
2023-06-06T11:07:13.906Z,163.13
2023-06-06T11:08:13.889Z,168.75
2023-06-06T11:09:13.863Z,163.13
2023-06-06T11:10:13.856Z,168.75
2023-06-06T11:11:13.822Z,180.00
2023-06-06T11:12:13.807Z,168.75
2023-06-06T11:13:13.779Z,168.75
2023-06-06T11:14:13.768Z,174.38
2023-06-06T11:15:13.760Z,180.00
2023-06-06T11:16:13.759Z,168.75
2023-06-06T11:17:13.743Z,185.63
2023-06-06T11:18:13.766Z,168.75
2023-06-06T11:19:13.660Z,174.38
2023-06-06T11:20:13.649Z,174.38
2023-06-06T11:21:13.736Z,174.38
2023-06-06T11:22:13.596Z,174.38
2023-06-06T11:23:13.577Z,174.38
2023-06-06T11:24:13.599Z,168.75
2023-06-06T11:25:13.544Z,174.38
2023-06-06T11:26:13.662Z,174.38
2023-06-06T11:27:13.541Z,174.38
2023-06-06T11:28:13.527Z,174.38
2023-06-06T11:29:13.464Z,174.38
2023-06-06T11:30:13.433Z,196.88
2023-06-06T11:31:13.614Z,174.38
2023-06-06T11:32:13.455Z,180.00
2023-06-06T11:33:13.506Z,191.25
2023-06-06T11:34:13.375Z,180.00
2023-06-06T11:35:13.388Z,174.38
2023-06-06T11:36:13.348Z,180.00
2023-06-06T11:37:13.350Z,180.00
2023-06-06T11:38:13.272Z,208.13
2023-06-06T11:39:13.304Z,180.00
2023-06-06T11:40:13.227Z,185.63
2023-06-06T11:41:13.452Z,180.00
2023-06-06T11:42:13.198Z,174.38
2023-06-06T11:43:14.497Z,191.25
2023-06-06T11:44:13.156Z,180.00
2023-06-06T11:45:13.146Z,180.00
2023-06-06T11:46:13.220Z,219.38
2023-06-06T11:47:13.188Z,180.00
2023-06-06T11:48:19.375Z,208.13
2023-06-06T11:49:13.052Z,185.63
2023-06-06T11:50:13.026Z,191.25
2023-06-06T11:51:13.114Z,185.63
2023-06-06T11:52:12.987Z,196.88
2023-06-06T11:53:13.071Z,191.25
2023-06-06T11:54:12.958Z,208.13
2023-06-06T11:55:12.939Z,202.50
2023-06-06T11:56:12.912Z,185.63
2023-06-06T11:57:12.885Z,196.88
2023-06-06T11:58:12.865Z,191.25
2023-06-06T11:59:12.846Z,191.25
2023-06-06T12:00:12.824Z,191.25
2023-06-06T12:01:12.986Z,191.25
2023-06-06T12:02:12.788Z,191.25
2023-06-06T12:03:12.933Z,191.25
2023-06-06T12:04:12.788Z,196.88
2023-06-06T12:05:12.770Z,196.88
2023-06-06T12:06:12.704Z,191.25
2023-06-06T12:07:12.684Z,196.88
2023-06-06T12:08:12.665Z,196.88
2023-06-06T12:09:12.687Z,202.50
2023-06-06T12:10:12.657Z,202.50
2023-06-06T12:11:12.606Z,196.88
2023-06-06T12:12:12.584Z,202.50
2023-06-06T12:13:12.564Z,208.13
2023-06-06T12:14:12.548Z,208.13
2023-06-06T12:15:12.535Z,202.50
2023-06-06T12:16:12.513Z,225.00
2023-06-06T12:17:12.486Z,208.13
2023-06-06T12:18:15.689Z,202.50
2023-06-06T12:19:12.446Z,202.50
2023-06-06T12:20:12.494Z,202.50
2023-06-06T12:21:12.639Z,196.88
2023-06-06T12:22:12.389Z,202.50
2023-06-06T12:23:12.368Z,202.50
2023-06-06T12:24:12.450Z,202.50
2023-06-06T12:25:12.422Z,202.50
2023-06-06T12:26:12.527Z,202.50
2023-06-06T12:27:12.318Z,202.50
2023-06-06T12:28:12.277Z,208.13
2023-06-06T12:29:12.256Z,202.50
2023-06-06T12:30:12.236Z,208.13
2023-06-06T12:31:12.571Z,208.13
2023-06-06T12:32:12.237Z,208.13
2023-06-06T12:33:12.244Z,208.13
2023-06-06T12:34:12.156Z,208.13
2023-06-06T12:35:12.136Z,208.13
2023-06-06T12:36:12.118Z,208.13
2023-06-06T12:37:12.105Z,219.38
2023-06-06T12:38:14.067Z,208.13
2023-06-06T12:39:12.062Z,213.75
2023-06-06T12:40:12.143Z,213.75
2023-06-06T12:41:12.356Z,208.13
2023-06-06T12:42:12.007Z,213.75
2023-06-06T12:43:11.985Z,213.75
2023-06-06T12:44:11.963Z,219.38
2023-06-06T12:45:11.945Z,213.75
2023-06-06T12:46:11.989Z,225.00
2023-06-06T12:47:11.908Z,213.75